sensor_id;sensor_type;location;lat;lon;timestamp;temperature;humidity
21563;DHT22;10942;47.894;11.424;2022-12-29T00:01:55;0.40;99.90
21563;DHT22;10942;47.894;11.424;2022-12-29T00:04:21;0.30;99.90
21563;DHT22;10942;47.894;11.424;2022-12-29T00:06:46;0.30;99.90
21563;DHT22;10942;47.894;11.424;2022-12-29T00:09:13;0.30;99.90
21563;DHT22;10942;47.894;11.424;2022-12-29T00:14:05;0.30;99.90
21563;DHT22;10942;47.894;11.424;2022-12-29T00:16:49;0.20;99.90
21563;DHT22;10942;47.894;11.424;2022-12-29T00:19:15;0.20;99.90
21563;DHT22;10942;47.894;11.424;2022-12-29T00:21:59;0.20;99.90
21563;DHT22;10942;47.894;11.424;2022-12-29T00:24:44;0.10;99.90
21563;DHT22;10942;47.894;11.424;2022-12-29T00:30:15;0.10;99.90
21563;DHT22;10942;47.894;11.424;2022-12-29T00:33:00;0.10;99.90
21563;DHT22;10942;47.894;11.424;2022-12-29T00:38:29;0.10;99.90
21563;DHT22;10942;47.894;11.424;2022-12-29T00:41:15;0.10;99.90
21563;DHT22;10942;47.894;11.424;2022-12-29T00:44:00;0.10;99.90
21563;DHT22;10942;47.894;11.424;2022-12-29T00:46:41;0.00;99.90
21563;DHT22;10942;47.894;11.424;2022-12-29T00:49:09;0.10;99.90
21563;DHT22;10942;47.894;11.424;2022-12-29T00:51:56;0.00;99.90
21563;DHT22;10942;47.894;11.424;2022-12-29T00:54:22;0.10;99.90
21563;DHT22;10942;47.894;11.424;2022-12-29T00:56:49;0.00;99.90
21563;DHT22;10942;47.894;11.424;2022-12-29T00:59:16;0.00;99.90
21563;DHT22;10942;47.894;11.424;2022-12-29T01:01:42;0.00;99.90
21563;DHT22;10942;47.894;11.424;2022-12-29T01:04:09;0.00;99.90
21563;DHT22;10942;47.894;11.424;2022-12-29T01:06:36;0.00;99.90
21563;DHT22;10942;47.894;11.424;2022-12-29T01:11:48;0.00;99.90
21563;DHT22;10942;47.894;11.424;2022-12-29T01:14:14;-0.10;99.90
21563;DHT22;10942;47.894;11.424;2022-12-29T01:16:40;-0.10;99.90
21563;DHT22;10942;47.894;11.424;2022-12-29T01:19:06;0.00;99.90
21563;DHT22;10942;47.894;11.424;2022-12-29T01:21:32;-0.10;99.90
21563;DHT22;10942;47.894;11.424;2022-12-29T01:23:58;-0.10;99.90
21563;DHT22;10942;47.894;11.424;2022-12-29T01:26:24;-0.10;99.90
21563;DHT22;10942;47.894;11.424;2022-12-29T01:28:51;-0.10;99.90
21563;DHT22;10942;47.894;11.424;2022-12-29T01:31:17;-0.20;99.90
21563;DHT22;10942;47.894;11.424;2022-12-29T01:33:43;-0.10;99.90
21563;DHT22;10942;47.894;11.424;2022-12-29T01:36:13;-0.20;99.90
21563;DHT22;10942;47.894;11.424;2022-12-29T01:38:40;-0.20;99.90
21563;DHT22;10942;47.894;11.424;2022-12-29T01:41:08;-0.20;99.90
21563;DHT22;10942;47.894;11.424;2022-12-29T01:51:14;-0.30;99.90
21563;DHT22;10942;47.894;11.424;2022-12-29T01:53:41;-0.30;99.90
21563;DHT22;10942;47.894;11.424;2022-12-29T01:56:09;-0.30;99.90
21563;DHT22;10942;47.894;11.424;2022-12-29T01:58:41;-0.30;99.90
21563;DHT22;10942;47.894;11.424;2022-12-29T02:01:08;-0.40;99.90
21563;DHT22;10942;47.894;11.424;2022-12-29T02:03:35;-0.40;99.90
21563;DHT22;10942;47.894;11.424;2022-12-29T02:06:12;-0.40;99.90
21563;DHT22;10942;47.894;11.424;2022-12-29T02:08:41;-0.50;99.90
21563;DHT22;10942;47.894;11.424;2022-12-29T02:11:07;-0.40;99.90
21563;DHT22;10942;47.894;11.424;2022-12-29T02:13:33;-0.50;99.90
21563;DHT22;10942;47.894;11.424;2022-12-29T02:16:26;-0.50;99.90
21563;DHT22;10942;47.894;11.424;2022-12-29T02:24:37;-0.40;99.90
21563;DHT22;10942;47.894;11.424;2022-12-29T02:35:41;-0.50;99.90
21563;DHT22;10942;47.894;11.424;2022-12-29T02:41:32;-0.40;99.90
21563;DHT22;10942;47.894;11.424;2022-12-29T02:44:20;-0.40;99.90
21563;DHT22;10942;47.894;11.424;2022-12-29T02:46:53;-0.40;99.90
21563;DHT22;10942;47.894;11.424;2022-12-29T02:49:36;-0.40;99.90
21563;DHT22;10942;47.894;11.424;2022-12-29T02:52:11;-0.30;99.90
21563;DHT22;10942;47.894;11.424;2022-12-29T02:54:40;-0.40;99.90
21563;DHT22;10942;47.894;11.424;2022-12-29T02:57:35;-0.40;99.90
21563;DHT22;10942;47.894;11.424;2022-12-29T03:00:14;-0.30;99.90
21563;DHT22;10942;47.894;11.424;2022-12-29T03:11:11;-0.30;99.90
21563;DHT22;10942;47.894;11.424;2022-12-29T03:14:02;-0.30;99.90
21563;DHT22;10942;47.894;11.424;2022-12-29T03:20:22;-0.20;99.90
21563;DHT22;10942;47.894;11.424;2022-12-29T03:22:57;-0.20;99.90
21563;DHT22;10942;47.894;11.424;2022-12-29T03:25:30;-0.20;99.90
21563;DHT22;10942;47.894;11.424;2022-12-29T03:28:03;-0.20;99.90
21563;DHT22;10942;47.894;11.424;2022-12-29T03:30:36;-0.20;99.90
21563;DHT22;10942;47.894;11.424;2022-12-29T03:33:10;-0.20;99.90
21563;DHT22;10942;47.894;11.424;2022-12-29T03:35:41;-0.10;99.90
21563;DHT22;10942;47.894;11.424;2022-12-29T03:40:41;-0.10;99.90
21563;DHT22;10942;47.894;11.424;2022-12-29T03:43:08;-0.10;99.90
21563;DHT22;10942;47.894;11.424;2022-12-29T03:45:35;-0.10;99.90
21563;DHT22;10942;47.894;11.424;2022-12-29T03:48:01;-0.20;99.90
21563;DHT22;10942;47.894;11.424;2022-12-29T03:50:28;-0.10;99.90
21563;DHT22;10942;47.894;11.424;2022-12-29T03:52:54;-0.20;99.90
21563;DHT22;10942;47.894;11.424;2022-12-29T03:55:20;-0.10;99.90
21563;DHT22;10942;47.894;11.424;2022-12-29T03:57:46;-0.20;99.90
21563;DHT22;10942;47.894;11.424;2022-12-29T04:00:17;-0.10;99.90
21563;DHT22;10942;47.894;11.424;2022-12-29T04:02:48;-0.10;99.90
21563;DHT22;10942;47.894;11.424;2022-12-29T04:05:19;0.00;99.90
21563;DHT22;10942;47.894;11.424;2022-12-29T04:07:45;0.00;99.90
21563;DHT22;10942;47.894;11.424;2022-12-29T04:10:12;0.10;99.90
21563;DHT22;10942;47.894;11.424;2022-12-29T04:12:38;0.10;99.90
21563;DHT22;10942;47.894;11.424;2022-12-29T04:15:04;0.20;99.90
21563;DHT22;10942;47.894;11.424;2022-12-29T04:17:30;0.20;99.90
21563;DHT22;10942;47.894;11.424;2022-12-29T04:19:56;0.30;99.90
21563;DHT22;10942;47.894;11.424;2022-12-29T04:22:41;0.30;99.90
21563;DHT22;10942;47.894;11.424;2022-12-29T04:25:08;0.40;99.90
21563;DHT22;10942;47.894;11.424;2022-12-29T04:27:33;0.40;99.90
21563;DHT22;10942;47.894;11.424;2022-12-29T04:30:29;0.50;99.90
21563;DHT22;10942;47.894;11.424;2022-12-29T04:33:08;0.50;99.90
21563;DHT22;10942;47.894;11.424;2022-12-29T04:35:34;0.60;99.90
21563;DHT22;10942;47.894;11.424;2022-12-29T04:38:00;0.60;99.90
21563;DHT22;10942;47.894;11.424;2022-12-29T04:40:25;0.60;99.90
21563;DHT22;10942;47.894;11.424;2022-12-29T04:42:51;0.70;99.90
21563;DHT22;10942;47.894;11.424;2022-12-29T04:45:19;0.70;99.90
21563;DHT22;10942;47.894;11.424;2022-12-29T04:48:14;0.80;99.90
21563;DHT22;10942;47.894;11.424;2022-12-29T04:51:01;0.80;99.90
21563;DHT22;10942;47.894;11.424;2022-12-29T04:53:34;0.90;99.90
21563;DHT22;10942;47.894;11.424;2022-12-29T04:55:59;0.90;99.90
21563;DHT22;10942;47.894;11.424;2022-12-29T04:58:26;0.90;99.90
21563;DHT22;10942;47.894;11.424;2022-12-29T05:00:52;0.90;99.90
21563;DHT22;10942;47.894;11.424;2022-12-29T05:03:20;0.90;99.90
21563;DHT22;10942;47.894;11.424;2022-12-29T05:05:46;0.90;99.90
21563;DHT22;10942;47.894;11.424;2022-12-29T05:08:12;0.90;99.90
21563;DHT22;10942;47.894;11.424;2022-12-29T05:10:38;1.00;99.90
21563;DHT22;10942;47.894;11.424;2022-12-29T05:13:09;0.90;99.90
21563;DHT22;10942;47.894;11.424;2022-12-29T05:15:35;1.00;99.90
21563;DHT22;10942;47.894;11.424;2022-12-29T05:18:01;1.00;99.90
21563;DHT22;10942;47.894;11.424;2022-12-29T05:20:27;1.00;99.90
21563;DHT22;10942;47.894;11.424;2022-12-29T05:22:53;1.00;99.90
21563;DHT22;10942;47.894;11.424;2022-12-29T05:25:19;1.00;99.90
21563;DHT22;10942;47.894;11.424;2022-12-29T05:27:53;1.10;99.90
21563;DHT22;10942;47.894;11.424;2022-12-29T05:30:26;1.10;99.90
21563;DHT22;10942;47.894;11.424;2022-12-29T05:32:52;1.10;99.90
21563;DHT22;10942;47.894;11.424;2022-12-29T05:35:18;1.10;99.90
21563;DHT22;10942;47.894;11.424;2022-12-29T05:37:44;1.20;99.90
21563;DHT22;10942;47.894;11.424;2022-12-29T05:40:10;1.20;99.90
21563;DHT22;10942;47.894;11.424;2022-12-29T05:42:36;1.20;99.90
21563;DHT22;10942;47.894;11.424;2022-12-29T05:45:16;1.20;99.90
21563;DHT22;10942;47.894;11.424;2022-12-29T05:48:06;1.20;99.90
21563;DHT22;10942;47.894;11.424;2022-12-29T05:50:55;1.20;99.90
21563;DHT22;10942;47.894;11.424;2022-12-29T05:53:29;1.20;99.90
21563;DHT22;10942;47.894;11.424;2022-12-29T05:55:56;1.20;99.90
21563;DHT22;10942;47.894;11.424;2022-12-29T05:58:21;1.20;99.90
21563;DHT22;10942;47.894;11.424;2022-12-29T06:00:47;1.30;99.90
21563;DHT22;10942;47.894;11.424;2022-12-29T06:03:14;1.30;99.90
21563;DHT22;10942;47.894;11.424;2022-12-29T06:05:41;1.30;99.90
21563;DHT22;10942;47.894;11.424;2022-12-29T06:08:06;1.30;99.90
21563;DHT22;10942;47.894;11.424;2022-12-29T06:10:33;1.30;99.90
21563;DHT22;10942;47.894;11.424;2022-12-29T06:13:03;1.20;99.90
21563;DHT22;10942;47.894;11.424;2022-12-29T06:15:32;1.20;99.90
21563;DHT22;10942;47.894;11.424;2022-12-29T06:17:58;1.20;99.90
21563;DHT22;10942;47.894;11.424;2022-12-29T06:20:23;1.30;99.90
21563;DHT22;10942;47.894;11.424;2022-12-29T06:22:49;1.30;99.90
21563;DHT22;10942;47.894;11.424;2022-12-29T06:25:16;1.30;99.90
21563;DHT22;10942;47.894;11.424;2022-12-29T06:27:43;1.30;99.90
21563;DHT22;10942;47.894;11.424;2022-12-29T06:30:10;1.30;99.90
21563;DHT22;10942;47.894;11.424;2022-12-29T06:32:37;1.30;99.90
21563;DHT22;10942;47.894;11.424;2022-12-29T06:35:05;1.30;99.90
21563;DHT22;10942;47.894;11.424;2022-12-29T06:37:39;1.30;99.90
21563;DHT22;10942;47.894;11.424;2022-12-29T06:40:05;1.30;99.90
21563;DHT22;10942;47.894;11.424;2022-12-29T06:42:44;1.30;99.90
21563;DHT22;10942;47.894;11.424;2022-12-29T06:45:28;1.30;99.90
21563;DHT22;10942;47.894;11.424;2022-12-29T06:47:54;1.30;99.90
21563;DHT22;10942;47.894;11.424;2022-12-29T06:50:20;1.40;99.90
21563;DHT22;10942;47.894;11.424;2022-12-29T06:52:45;1.40;99.90
21563;DHT22;10942;47.894;11.424;2022-12-29T06:55:11;1.40;99.90
21563;DHT22;10942;47.894;11.424;2022-12-29T06:57:37;1.40;99.90
21563;DHT22;10942;47.894;11.424;2022-12-29T07:00:04;1.40;99.90
21563;DHT22;10942;47.894;11.424;2022-12-29T07:02:30;1.40;99.90
21563;DHT22;10942;47.894;11.424;2022-12-29T07:04:56;1.40;99.90
21563;DHT22;10942;47.894;11.424;2022-12-29T07:07:21;1.40;99.90
21563;DHT22;10942;47.894;11.424;2022-12-29T07:09:47;1.40;99.90
21563;DHT22;10942;47.894;11.424;2022-12-29T07:12:13;1.40;99.90
21563;DHT22;10942;47.894;11.424;2022-12-29T07:14:38;1.40;99.90
21563;DHT22;10942;47.894;11.424;2022-12-29T07:17:05;1.40;99.90
21563;DHT22;10942;47.894;11.424;2022-12-29T07:19:34;1.50;99.90
21563;DHT22;10942;47.894;11.424;2022-12-29T07:22:00;1.50;99.90
21563;DHT22;10942;47.894;11.424;2022-12-29T07:24:26;1.50;99.90
21563;DHT22;10942;47.894;11.424;2022-12-29T07:26:52;1.50;99.90
21563;DHT22;10942;47.894;11.424;2022-12-29T07:29:18;1.60;99.90
21563;DHT22;10942;47.894;11.424;2022-12-29T07:31:44;1.60;99.90
21563;DHT22;10942;47.894;11.424;2022-12-29T07:34:10;1.60;99.90
21563;DHT22;10942;47.894;11.424;2022-12-29T07:36:35;1.60;99.90
21563;DHT22;10942;47.894;11.424;2022-12-29T07:39:02;1.60;99.90
21563;DHT22;10942;47.894;11.424;2022-12-29T07:41:28;1.60;99.90
21563;DHT22;10942;47.894;11.424;2022-12-29T07:43:54;1.70;99.90
21563;DHT22;10942;47.894;11.424;2022-12-29T07:46:34;1.60;99.90
21563;DHT22;10942;47.894;11.424;2022-12-29T07:48:59;1.70;99.90
21563;DHT22;10942;47.894;11.424;2022-12-29T07:51:25;1.60;99.90
21563;DHT22;10942;47.894;11.424;2022-12-29T07:53:51;1.70;99.90
21563;DHT22;10942;47.894;11.424;2022-12-29T07:56:16;1.80;99.90
21563;DHT22;10942;47.894;11.424;2022-12-29T07:58:42;1.80;99.90
21563;DHT22;10942;47.894;11.424;2022-12-29T08:01:08;1.80;99.90
21563;DHT22;10942;47.894;11.424;2022-12-29T08:03:33;1.90;99.90
21563;DHT22;10942;47.894;11.424;2022-12-29T08:05:59;1.90;99.90
21563;DHT22;10942;47.894;11.424;2022-12-29T08:08:25;1.90;99.90
21563;DHT22;10942;47.894;11.424;2022-12-29T08:10:51;2.00;99.90
21563;DHT22;10942;47.894;11.424;2022-12-29T08:13:16;2.10;99.90
21563;DHT22;10942;47.894;11.424;2022-12-29T08:15:42;2.30;99.90
21563;DHT22;10942;47.894;11.424;2022-12-29T08:18:08;2.40;99.90
21563;DHT22;10942;47.894;11.424;2022-12-29T08:42:30;2.60;99.90
21563;DHT22;10942;47.894;11.424;2022-12-29T08:59:39;3.40;99.90
21563;DHT22;10942;47.894;11.424;2022-12-29T09:02:05;4.50;99.90
21563;DHT22;10942;47.894;11.424;2022-12-29T09:16:41;4.70;99.90
21563;DHT22;10942;47.894;11.424;2022-12-29T09:19:26;5.30;99.90
21563;DHT22;10942;47.894;11.424;2022-12-29T09:21:51;5.40;99.90
21563;DHT22;10942;47.894;11.424;2022-12-29T09:24:17;5.50;99.90
21563;DHT22;10942;47.894;11.424;2022-12-29T09:26:43;5.80;99.90
21563;DHT22;10942;47.894;11.424;2022-12-29T09:29:08;6.00;99.90
21563;DHT22;10942;47.894;11.424;2022-12-29T09:31:34;6.20;99.90
21563;DHT22;10942;47.894;11.424;2022-12-29T09:34:00;6.50;99.90
21563;DHT22;10942;47.894;11.424;2022-12-29T09:36:25;6.70;99.90
21563;DHT22;10942;47.894;11.424;2022-12-29T09:38:53;6.90;99.90
21563;DHT22;10942;47.894;11.424;2022-12-29T09:41:29;7.00;99.90
21563;DHT22;10942;47.894;11.424;2022-12-29T09:47:11;7.10;99.90
21563;DHT22;10942;47.894;11.424;2022-12-29T09:49:54;7.30;99.90
21563;DHT22;10942;47.894;11.424;2022-12-29T09:52:23;7.50;99.90
21563;DHT22;10942;47.894;11.424;2022-12-29T09:57:30;7.80;99.90
21563;DHT22;10942;47.894;11.424;2022-12-29T10:00:05;7.60;99.90
21563;DHT22;10942;47.894;11.424;2022-12-29T10:02:41;7.60;99.90
21563;DHT22;10942;47.894;11.424;2022-12-29T10:08:06;7.60;99.90
21563;DHT22;10942;47.894;11.424;2022-12-29T10:16:09;7.50;99.90
21563;DHT22;10942;47.894;11.424;2022-12-29T10:19:00;7.30;99.90
21563;DHT22;10942;47.894;11.424;2022-12-29T10:23:59;7.10;99.90
21563;DHT22;10942;47.894;11.424;2022-12-29T10:26:28;7.20;99.90
21563;DHT22;10942;47.894;11.424;2022-12-29T10:29:04;7.20;99.90
21563;DHT22;10942;47.894;11.424;2022-12-29T10:31:46;7.20;99.90
21563;DHT22;10942;47.894;11.424;2022-12-29T10:34:21;7.30;99.90
21563;DHT22;10942;47.894;11.424;2022-12-29T10:36:53;7.30;99.90
21563;DHT22;10942;47.894;11.424;2022-12-29T10:39:27;7.50;99.90
21563;DHT22;10942;47.894;11.424;2022-12-29T10:42:12;7.50;99.90
21563;DHT22;10942;47.894;11.424;2022-12-29T10:44:39;7.50;99.90
21563;DHT22;10942;47.894;11.424;2022-12-29T10:47:12;7.60;99.90
21563;DHT22;10942;47.894;11.424;2022-12-29T10:49:42;7.70;99.90
21563;DHT22;10942;47.894;11.424;2022-12-29T10:52:09;7.60;99.90
21563;DHT22;10942;47.894;11.424;2022-12-29T10:54:55;7.70;99.90
21563;DHT22;10942;47.894;11.424;2022-12-29T10:57:30;7.60;99.90
21563;DHT22;10942;47.894;11.424;2022-12-29T10:59:58;7.60;99.90
21563;DHT22;10942;47.894;11.424;2022-12-29T11:02:48;7.60;99.90
21563;DHT22;10942;47.894;11.424;2022-12-29T11:08:30;7.60;99.90
21563;DHT22;10942;47.894;11.424;2022-12-29T11:11:07;7.90;99.90
21563;DHT22;10942;47.894;11.424;2022-12-29T11:13:56;8.00;99.90
21563;DHT22;10942;47.894;11.424;2022-12-29T11:16:30;8.10;99.90
21563;DHT22;10942;47.894;11.424;2022-12-29T11:19:00;8.10;99.90
21563;DHT22;10942;47.894;11.424;2022-12-29T11:21:36;8.00;99.90
21563;DHT22;10942;47.894;11.424;2022-12-29T11:24:23;7.90;99.90
21563;DHT22;10942;47.894;11.424;2022-12-29T11:26:55;7.90;99.90
21563;DHT22;10942;47.894;11.424;2022-12-29T11:29:24;7.90;99.90
21563;DHT22;10942;47.894;11.424;2022-12-29T11:31:53;7.80;99.90
21563;DHT22;10942;47.894;11.424;2022-12-29T11:34:31;7.80;99.90
21563;DHT22;10942;47.894;11.424;2022-12-29T11:37:22;7.80;99.90
21563;DHT22;10942;47.894;11.424;2022-12-29T11:40:05;7.70;99.90
21563;DHT22;10942;47.894;11.424;2022-12-29T11:42:40;7.80;99.90
21563;DHT22;10942;47.894;11.424;2022-12-29T11:47:41;7.60;99.90
21563;DHT22;10942;47.894;11.424;2022-12-29T11:50:34;7.50;99.90
21563;DHT22;10942;47.894;11.424;2022-12-29T11:53:21;7.40;99.90
21563;DHT22;10942;47.894;11.424;2022-12-29T11:55:56;7.50;99.90
21563;DHT22;10942;47.894;11.424;2022-12-29T11:58:32;7.30;99.90
21563;DHT22;10942;47.894;11.424;2022-12-29T12:03:35;7.30;99.90
21563;DHT22;10942;47.894;11.424;2022-12-29T12:06:02;7.30;99.90
21563;DHT22;10942;47.894;11.424;2022-12-29T12:08:51;7.30;99.90
21563;DHT22;10942;47.894;11.424;2022-12-29T12:11:21;7.40;99.90
21563;DHT22;10942;47.894;11.424;2022-12-29T12:14:07;7.40;99.90
21563;DHT22;10942;47.894;11.424;2022-12-29T12:17:11;7.50;99.90
21563;DHT22;10942;47.894;11.424;2022-12-29T12:19:44;7.60;99.90
21563;DHT22;10942;47.894;11.424;2022-12-29T12:23:06;7.70;99.90
21563;DHT22;10942;47.894;11.424;2022-12-29T12:25:56;7.80;99.90
21563;DHT22;10942;47.894;11.424;2022-12-29T12:33:58;8.20;99.90
21563;DHT22;10942;47.894;11.424;2022-12-29T12:38:55;8.30;99.90
21563;DHT22;10942;47.894;11.424;2022-12-29T12:44:36;8.60;99.90
21563;DHT22;10942;47.894;11.424;2022-12-29T12:47:27;8.60;99.90
21563;DHT22;10942;47.894;11.424;2022-12-29T12:50:06;8.60;99.90
21563;DHT22;10942;47.894;11.424;2022-12-29T13:06:18;8.80;99.90
21563;DHT22;10942;47.894;11.424;2022-12-29T13:09:03;8.90;99.90
21563;DHT22;10942;47.894;11.424;2022-12-29T13:12:00;8.90;99.90
21563;DHT22;10942;47.894;11.424;2022-12-29T13:23:26;9.00;99.90
21563;DHT22;10942;47.894;11.424;2022-12-29T13:26:02;9.20;99.90
21563;DHT22;10942;47.894;11.424;2022-12-29T13:28:32;9.20;99.90
21563;DHT22;10942;47.894;11.424;2022-12-29T13:31:19;9.10;99.90
21563;DHT22;10942;47.894;11.424;2022-12-29T13:36:56;9.00;99.90
21563;DHT22;10942;47.894;11.424;2022-12-29T13:39:57;8.90;99.90
21563;DHT22;10942;47.894;11.424;2022-12-29T13:42:26;8.90;99.90
21563;DHT22;10942;47.894;11.424;2022-12-29T13:45:05;8.80;99.90
21563;DHT22;10942;47.894;11.424;2022-12-29T13:47:42;8.80;99.90
21563;DHT22;10942;47.894;11.424;2022-12-29T13:50:18;8.70;99.90
21563;DHT22;10942;47.894;11.424;2022-12-29T13:55:45;8.60;99.90
21563;DHT22;10942;47.894;11.424;2022-12-29T13:58:31;8.60;99.90
21563;DHT22;10942;47.894;11.424;2022-12-29T14:01:53;8.50;99.90
21563;DHT22;10942;47.894;11.424;2022-12-29T14:03:59;8.50;99.90
21563;DHT22;10942;47.894;11.424;2022-12-29T14:06:31;8.50;99.90
21563;DHT22;10942;47.894;11.424;2022-12-29T14:08:58;8.40;99.90
21563;DHT22;10942;47.894;11.424;2022-12-29T14:11:41;8.30;99.90
21563;DHT22;10942;47.894;11.424;2022-12-29T14:14:12;8.30;99.90
21563;DHT22;10942;47.894;11.424;2022-12-29T14:16:39;8.10;99.90
21563;DHT22;10942;47.894;11.424;2022-12-29T14:19:15;8.10;99.90
21563;DHT22;10942;47.894;11.424;2022-12-29T14:21:51;8.10;99.90
21563;DHT22;10942;47.894;11.424;2022-12-29T14:29:48;7.90;99.90
21563;DHT22;10942;47.894;11.424;2022-12-29T14:35:40;7.80;99.90
21563;DHT22;10942;47.894;11.424;2022-12-29T14:38:17;7.70;99.90
21563;DHT22;10942;47.894;11.424;2022-12-29T14:40:44;7.60;99.90
21563;DHT22;10942;47.894;11.424;2022-12-29T14:43:20;7.60;99.90
21563;DHT22;10942;47.894;11.424;2022-12-29T14:45:57;7.60;99.90
21563;DHT22;10942;47.894;11.424;2022-12-29T14:48:39;7.60;99.90
21563;DHT22;10942;47.894;11.424;2022-12-29T14:51:19;7.50;99.90
21563;DHT22;10942;47.894;11.424;2022-12-29T14:53:50;7.50;99.90
21563;DHT22;10942;47.894;11.424;2022-12-29T14:56:19;7.40;99.90
21563;DHT22;10942;47.894;11.424;2022-12-29T14:58:56;7.30;99.90
21563;DHT22;10942;47.894;11.424;2022-12-29T15:04:06;7.20;99.90
21563;DHT22;10942;47.894;11.424;2022-12-29T15:06:39;7.20;99.90
21563;DHT22;10942;47.894;11.424;2022-12-29T15:11:50;7.00;99.90
21563;DHT22;10942;47.894;11.424;2022-12-29T15:14:35;6.90;99.90
21563;DHT22;10942;47.894;11.424;2022-12-29T15:17:09;6.90;99.90
21563;DHT22;10942;47.894;11.424;2022-12-29T15:19:36;6.70;99.90
21563;DHT22;10942;47.894;11.424;2022-12-29T15:22:02;6.70;99.90
21563;DHT22;10942;47.894;11.424;2022-12-29T15:24:28;6.60;99.90
21563;DHT22;10942;47.894;11.424;2022-12-29T15:26:55;6.50;99.90
21563;DHT22;10942;47.894;11.424;2022-12-29T15:29:37;6.50;99.90
21563;DHT22;10942;47.894;11.424;2022-12-29T15:34:46;6.40;99.90
21563;DHT22;10942;47.894;11.424;2022-12-29T15:37:41;6.40;99.90
21563;DHT22;10942;47.894;11.424;2022-12-29T15:43:13;6.30;99.90
21563;DHT22;10942;47.894;11.424;2022-12-29T15:45:42;6.20;99.90
21563;DHT22;10942;47.894;11.424;2022-12-29T15:48:16;6.20;99.90
21563;DHT22;10942;47.894;11.424;2022-12-29T15:50:43;6.10;99.90
21563;DHT22;10942;47.894;11.424;2022-12-29T15:53:21;6.10;99.90
21563;DHT22;10942;47.894;11.424;2022-12-29T15:55:51;6.10;99.90
21563;DHT22;10942;47.894;11.424;2022-12-29T15:58:28;6.00;99.90
21563;DHT22;10942;47.894;11.424;2022-12-29T16:01:01;6.00;99.90
21563;DHT22;10942;47.894;11.424;2022-12-29T16:03:36;5.90;99.90
21563;DHT22;10942;47.894;11.424;2022-12-29T16:06:21;5.90;99.90
21563;DHT22;10942;47.894;11.424;2022-12-29T16:11:38;5.80;99.90
21563;DHT22;10942;47.894;11.424;2022-12-29T16:14:14;5.70;99.90
21563;DHT22;10942;47.894;11.424;2022-12-29T16:16:43;5.70;99.90
21563;DHT22;10942;47.894;11.424;2022-12-29T16:19:24;5.60;99.90
21563;DHT22;10942;47.894;11.424;2022-12-29T16:21:51;5.60;99.90
21563;DHT22;10942;47.894;11.424;2022-12-29T16:24:23;5.50;99.90
21563;DHT22;10942;47.894;11.424;2022-12-29T16:27:14;5.50;99.90
21563;DHT22;10942;47.894;11.424;2022-12-29T16:29:42;5.50;99.90
21563;DHT22;10942;47.894;11.424;2022-12-29T16:32:28;5.50;99.90
21563;DHT22;10942;47.894;11.424;2022-12-29T16:35:16;5.40;99.90
21563;DHT22;10942;47.894;11.424;2022-12-29T16:37:42;5.40;99.90
21563;DHT22;10942;47.894;11.424;2022-12-29T16:40:27;5.40;99.90
21563;DHT22;10942;47.894;11.424;2022-12-29T16:42:56;5.40;99.90
21563;DHT22;10942;47.894;11.424;2022-12-29T16:48:31;5.40;99.90
21563;DHT22;10942;47.894;11.424;2022-12-29T16:51:16;5.40;99.90
21563;DHT22;10942;47.894;11.424;2022-12-29T16:53:51;5.40;99.90
21563;DHT22;10942;47.894;11.424;2022-12-29T16:56:20;5.40;99.90
21563;DHT22;10942;47.894;11.424;2022-12-29T16:59:47;5.40;99.90
21563;DHT22;10942;47.894;11.424;2022-12-29T17:01:55;5.30;99.90
21563;DHT22;10942;47.894;11.424;2022-12-29T17:04:21;5.30;99.90
21563;DHT22;10942;47.894;11.424;2022-12-29T17:06:47;5.30;99.90
21563;DHT22;10942;47.894;11.424;2022-12-29T17:11:48;5.30;99.90
21563;DHT22;10942;47.894;11.424;2022-12-29T17:14:41;5.30;99.90
21563;DHT22;10942;47.894;11.424;2022-12-29T17:17:40;5.20;99.90
21563;DHT22;10942;47.894;11.424;2022-12-29T17:20:16;5.20;99.90
21563;DHT22;10942;47.894;11.424;2022-12-29T17:22:42;5.20;99.90
21563;DHT22;10942;47.894;11.424;2022-12-29T17:25:12;5.10;99.90
21563;DHT22;10942;47.894;11.424;2022-12-29T17:30:16;5.00;99.90
21563;DHT22;10942;47.894;11.424;2022-12-29T17:32:45;5.00;99.90
21563;DHT22;10942;47.894;11.424;2022-12-29T17:35:15;5.00;99.90
21563;DHT22;10942;47.894;11.424;2022-12-29T17:37:41;5.00;99.90
21563;DHT22;10942;47.894;11.424;2022-12-29T17:40:13;4.90;99.90
21563;DHT22;10942;47.894;11.424;2022-12-29T17:42:43;4.90;99.90
21563;DHT22;10942;47.894;11.424;2022-12-29T17:45:27;4.90;99.90
21563;DHT22;10942;47.894;11.424;2022-12-29T17:47:53;4.70;99.90
21563;DHT22;10942;47.894;11.424;2022-12-29T17:50:22;4.70;99.90
21563;DHT22;10942;47.894;11.424;2022-12-29T17:53:12;4.70;99.90
21563;DHT22;10942;47.894;11.424;2022-12-29T17:55:36;4.70;99.90
21563;DHT22;10942;47.894;11.424;2022-12-29T18:00:38;4.60;99.90
21563;DHT22;10942;47.894;11.424;2022-12-29T18:03:04;4.60;99.90
21563;DHT22;10942;47.894;11.424;2022-12-29T18:05:30;4.50;99.90
21563;DHT22;10942;47.894;11.424;2022-12-29T18:07:57;4.40;99.90
21563;DHT22;10942;47.894;11.424;2022-12-29T18:10:25;4.40;99.90
21563;DHT22;10942;47.894;11.424;2022-12-29T18:12:53;4.40;99.90
21563;DHT22;10942;47.894;11.424;2022-12-29T18:15:30;4.30;99.90
21563;DHT22;10942;47.894;11.424;2022-12-29T18:18:11;4.30;99.90
21563;DHT22;10942;47.894;11.424;2022-12-29T18:20:38;4.30;99.90
21563;DHT22;10942;47.894;11.424;2022-12-29T18:23:04;4.30;99.90
21563;DHT22;10942;47.894;11.424;2022-12-29T18:25:55;4.30;99.90
21563;DHT22;10942;47.894;11.424;2022-12-29T18:28:23;4.30;99.90
21563;DHT22;10942;47.894;11.424;2022-12-29T18:30:49;4.20;99.90
21563;DHT22;10942;47.894;11.424;2022-12-29T18:33:17;4.20;99.90
21563;DHT22;10942;47.894;11.424;2022-12-29T18:35:47;4.20;99.90
21563;DHT22;10942;47.894;11.424;2022-12-29T18:38:13;4.20;99.90
21563;DHT22;10942;47.894;11.424;2022-12-29T18:40:39;4.20;99.90
21563;DHT22;10942;47.894;11.424;2022-12-29T18:43:05;4.30;99.90
21563;DHT22;10942;47.894;11.424;2022-12-29T18:45:32;4.30;99.90
21563;DHT22;10942;47.894;11.424;2022-12-29T18:48:01;4.20;99.90
21563;DHT22;10942;47.894;11.424;2022-12-29T18:50:26;4.20;99.90
21563;DHT22;10942;47.894;11.424;2022-12-29T18:52:52;4.20;99.90
21563;DHT22;10942;47.894;11.424;2022-12-29T18:55:23;4.20;99.90
21563;DHT22;10942;47.894;11.424;2022-12-29T18:57:50;4.20;99.90
21563;DHT22;10942;47.894;11.424;2022-12-29T19:00:18;4.20;99.90
21563;DHT22;10942;47.894;11.424;2022-12-29T19:02:44;4.20;99.90
21563;DHT22;10942;47.894;11.424;2022-12-29T19:05:27;4.20;99.90
21563;DHT22;10942;47.894;11.424;2022-12-29T19:07:53;4.10;99.90
21563;DHT22;10942;47.894;11.424;2022-12-29T19:10:21;4.10;99.90
21563;DHT22;10942;47.894;11.424;2022-12-29T19:12:47;4.10;99.90
21563;DHT22;10942;47.894;11.424;2022-12-29T19:17:49;4.10;99.90
21563;DHT22;10942;47.894;11.424;2022-12-29T19:20:37;4.10;99.90
21563;DHT22;10942;47.894;11.424;2022-12-29T19:23:08;4.10;99.90